Time;durP1;ratioP1;P1;durP2;ratioP2;P2;SDS_P1;SDS_P2;PMS_P1;PMS_P2;Temp;Humidity;BMP_temperature;BMP_pressure;BME280_temperature;BME280_humidity;BME280_pressure;Samples;Min_cycle;Max_cycle;Signal;HPM_P1;HPM_P2
2023/07/10 00:01:58;;;;;;;6.63;3.42;;;27.80;51.20;;;;;;5108848;27;20089;-76
2023/07/10 00:04:24;;;;;;;4.63;3.65;;;27.90;51.20;;;;;;5111421;28;20126;-77
2023/07/10 00:06:50;;;;;;;5.80;3.63;;;27.90;51.30;;;;;;5111241;28;20531;-76
2023/07/10 00:09:16;;;;;;;5.50;3.70;;;28.00;51.90;;;;;;5110042;28;20548;-76
2023/07/10 00:11:43;;;;;;;8.05;4.05;;;28.00;51.90;;;;;;5111294;28;20055;-76
2023/07/10 00:14:18;;;;;;;4.35;3.33;;;27.80;51.40;;;;;;5108647;28;20112;-77
2023/07/10 00:16:44;;;;;;;5.80;3.33;;;28.00;52.00;;;;;;5110391;28;20032;-76
2023/07/10 00:19:14;;;;;;;7.07;3.83;;;28.00;52.00;;;;;;5110000;27;20391;-77
2023/07/10 00:21:40;;;;;;;8.70;3.38;;;27.90;51.40;;;;;;5110396;28;20036;-76
2023/07/10 00:24:07;;;;;;;3.92;3.40;;;27.90;51.40;;;;;;5110436;28;20138;-76
2023/07/10 00:26:37;;;;;;;4.07;3.67;;;27.90;51.40;;;;;;5106905;28;20479;-77
2023/07/10 00:29:26;;;;;;;7.55;3.95;;;27.90;51.40;;;;;;5109973;28;20459;-77
2023/07/10 00:31:53;;;;;;;5.82;3.65;;;27.90;51.40;;;;;;5109303;28;20032;-76
2023/07/10 00:34:25;;;;;;;3.88;3.15;;;27.90;51.40;;;;;;5110145;28;20031;-76
2023/07/10 00:36:52;;;;;;;4.13;3.25;;;27.80;51.40;;;;;;5110509;28;20051;-76
2023/07/10 00:39:30;;;;;;;4.63;3.47;;;27.90;51.40;;;;;;5111247;28;20027;-76
2023/07/10 00:42:01;;;;;;;5.28;3.50;;;27.90;51.50;;;;;;5107703;28;20041;-77
2023/07/10 00:44:47;;;;;;;3.97;3.38;;;27.80;51.40;;;;;;5108160;28;20051;-77
2023/07/10 00:47:25;;;;;;;4.28;3.65;;;27.70;51.50;;;;;;5108499;27;20767;-77
2023/07/10 00:50:13;;;;;;;6.38;3.47;;;27.80;51.50;;;;;;5096145;28;20051;-76
2023/07/10 00:52:43;;;;;;;4.75;3.40;;;27.70;51.60;;;;;;5110007;28;20047;-75
2023/07/10 00:55:35;;;;;;;4.43;3.47;;;27.70;51.60;;;;;;5108302;28;20027;-76
2023/07/10 00:58:37;;;;;;;6.82;3.25;;;27.80;51.60;;;;;;5100449;28;20522;-75
2023/07/10 01:01:05;;;;;;;8.10;3.60;;;27.80;51.70;;;;;;5085461;28;20071;-76
2023/07/10 01:03:32;;;;;;;3.58;3.28;;;27.80;51.70;;;;;;5070244;28;20032;-77
2023/07/10 01:06:04;;;;;;;3.35;3.13;;;27.70;51.70;;;;;;5087705;28;20044;-76
2023/07/10 01:08:31;;;;;;;4.10;3.20;;;27.80;51.80;;;;;;5088275;28;20055;-77
2023/07/10 01:10:59;;;;;;;3.97;3.33;;;27.90;51.80;;;;;;5086721;28;20075;-76
2023/07/10 01:13:25;;;;;;;4.13;3.47;;;27.80;51.80;;;;;;5069982;28;20035;-77
2023/07/10 01:15:51;;;;;;;4.68;3.80;;;27.80;51.80;;;;;;5070034;28;20400;-76
2023/07/10 01:18:19;;;;;;;6.25;3.70;;;27.70;51.80;;;;;;5071665;28;20028;-77
2023/07/10 01:20:51;;;;;;;5.78;4.43;;;27.90;51.90;;;;;;5101989;28;20046;-76
2023/07/10 01:23:18;;;;;;;5.80;3.65;;;27.80;51.80;;;;;;5074094;28;20062;-76
2023/07/10 01:25:57;;;;;;;4.20;3.60;;;27.90;51.80;;;;;;5084909;28;20097;-76
2023/07/10 01:28:24;;;;;;;5.07;3.78;;;27.80;51.80;;;;;;5078137;28;20052;-77
2023/07/10 01:30:53;;;;;;;5.15;3.72;;;27.80;51.70;;;;;;5085281;28;20064;-77
2023/07/10 01:33:25;;;;;;;5.78;3.53;;;27.70;51.80;;;;;;5088432;28;20035;-77
2023/07/10 01:35:54;;;;;;;3.50;3.20;;;27.80;51.90;;;;;;5105945;28;20039;-77
2023/07/10 01:38:27;;;;;;;7.07;3.72;;;27.80;51.80;;;;;;5109633;28;20063;-77
2023/07/10 01:40:55;;;;;;;;;;;27.70;51.90;;;;;;5108819;28;20031;-77
2023/07/10 01:43:21;;;;;;;4.90;4.00;;;27.70;51.90;;;;;;5109233;28;19928;-76
2023/07/10 01:45:48;;;;;;;3.75;3.33;;;27.70;51.90;;;;;;5109612;28;20074;-76
2023/07/10 01:48:17;;;;;;;7.07;3.92;;;27.60;51.90;;;;;;5110469;28;20032;-77
2023/07/10 01:50:43;;;;;;;3.17;2.88;;;27.70;52.00;;;;;;5109785;28;20027;-76
2023/07/10 01:53:10;;;;;;;5.68;3.53;;;27.80;52.00;;;;;;5109442;28;20119;-76
2023/07/10 01:55:43;;;;;;;6.40;4.15;;;27.60;52.00;;;;;;5106777;28;20051;-77
2023/07/10 01:58:10;;;;;;;;;;;27.70;52.00;;;;;;5108869;28;20051;-76
2023/07/10 02:00:37;;;;;;;7.75;3.67;;;27.60;52.00;;;;;;5127014;27;19919;-77
2023/07/10 02:03:03;;;;;;;5.20;3.75;;;27.70;52.00;;;;;;5103148;28;20059;-76
2023/07/10 02:05:29;;;;;;;6.32;3.75;;;27.80;52.10;;;;;;5104147;28;20062;-77
2023/07/10 02:07:56;;;;;;;4.53;3.45;;;27.60;52.10;;;;;;5115070;28;20542;-77
2023/07/10 02:10:22;;;;;;;8.07;3.47;;;27.70;52.10;;;;;;5110510;28;20142;-77
2023/07/10 02:12:47;;;;;;;4.22;3.83;;;27.70;52.20;;;;;;5113841;27;20114;-76
2023/07/10 02:15:14;;;;;;;7.95;4.03;;;27.90;52.20;;;;;;5109335;28;20028;-77
2023/07/10 02:17:40;;;;;;;6.13;3.83;;;27.80;52.20;;;;;;5112279;28;20438;-76
2023/07/10 02:20:06;;;;;;;6.05;3.90;;;27.70;52.20;;;;;;5112097;28;20114;-77
2023/07/10 02:22:32;;;;;;;7.13;3.60;;;27.70;52.20;;;;;;5114518;28;20028;-77
2023/07/10 02:24:58;;;;;;;4.13;3.72;;;27.70;52.20;;;;;;5112578;28;20490;-77
2023/07/10 02:27:24;;;;;;;7.32;3.88;;;27.70;52.20;;;;;;5112288;28;20035;-76
2023/07/10 02:29:50;;;;;;;6.18;4.00;;;27.70;52.10;;;;;;5112043;28;20553;-76
2023/07/10 02:32:16;;;;;;;7.30;3.75;;;27.70;52.10;;;;;;5111988;28;20040;-76
2023/07/10 02:34:42;;;;;;;5.20;3.55;;;27.60;52.20;;;;;;5113447;28;20036;-75
2023/07/10 02:37:08;;;;;;;5.22;4.22;;;27.70;52.20;;;;;;5110953;28;20035;-77
2023/07/10 02:39:34;;;;;;;6.60;4.05;;;27.60;52.20;;;;;;5095708;28;20092;-77
2023/07/10 02:42:00;;;;;;;6.68;4.28;;;27.80;52.20;;;;;;5111821;28;20028;-77
2023/07/10 02:44:26;;;;;;;5.85;4.40;;;27.80;52.20;;;;;;5111738;28;20389;-77
2023/07/10 02:46:52;;;;;;;6.13;3.88;;;27.70;52.20;;;;;;5109744;28;20039;-76
2023/07/10 02:49:18;;;;;;;3.92;3.30;;;27.60;52.20;;;;;;5112862;28;20035;-77
2023/07/10 02:51:44;;;;;;;6.10;3.47;;;27.50;52.20;;;;;;5113215;28;20031;-77
2023/07/10 02:54:11;;;;;;;4.05;3.65;;;27.60;52.20;;;;;;5113680;28;20031;-76
2023/07/10 02:56:37;;;;;;;5.57;4.50;;;27.60;52.20;;;;;;5110342;28;20471;-76
2023/07/10 02:59:03;;;;;;;7.80;4.25;;;27.60;52.30;;;;;;5111551;27;20031;-76
2023/07/10 03:01:30;;;;;;;4.13;3.83;;;27.60;52.20;;;;;;5112904;28;20043;-77
2023/07/10 03:03:56;;;;;;;6.15;4.18;;;27.70;52.30;;;;;;5130854;27;20734;-75
2023/07/10 03:06:23;;;;;;;7.60;4.07;;;27.70;52.30;;;;;;5123763;27;20078;-76
2023/07/10 03:08:50;;;;;;;8.43;4.07;;;27.70;52.30;;;;;;5114634;27;20043;-76
2023/07/10 03:11:17;;;;;;;9.35;4.18;;;27.60;52.30;;;;;;5111638;27;20050;-77
2023/07/10 03:13:43;;;;;;;10.73;4.43;;;27.60;52.30;;;;;;5129978;27;20043;-77
2023/07/10 03:16:13;;;;;;;5.85;4.10;;;27.80;52.30;;;;;;5125697;27;20422;-77
2023/07/10 03:18:39;;;;;;;5.45;4.40;;;27.70;52.40;;;;;;5131547;27;20195;-77
2023/07/10 03:21:08;;;;;;;6.10;4.22;;;27.60;52.40;;;;;;5131241;27;20039;-77
2023/07/10 03:23:36;;;;;;;4.65;3.95;;;27.70;52.30;;;;;;5131472;27;20047;-77
2023/07/10 03:26:02;;;;;;;6.40;4.43;;;27.70;52.30;;;;;;5126620;27;20027;-77
2023/07/10 03:28:28;;;;;;;5.57;4.13;;;27.70;52.30;;;;;;5130316;27;20023;-77
2023/07/10 03:30:54;;;;;;;7.57;4.40;;;27.70;52.30;;;;;;5127760;27;20169;-77
2023/07/10 03:33:20;;;;;;;5.70;3.78;;;27.70;52.30;;;;;;5129950;27;20043;-76
2023/07/10 03:35:48;;;;;;;6.05;4.53;;;27.70;52.20;;;;;;5114416;27;20082;-76
2023/07/10 03:38:16;;;;;;;6.75;4.53;;;27.80;52.20;;;;;;5112446;28;20042;-76
2023/07/10 03:40:52;;;;;;;8.73;4.63;;;27.60;52.20;;;;;;5110453;28;20036;-77
2023/07/10 03:43:18;;;;;;;5.70;4.70;;;27.60;52.20;;;;;;5099841;28;20506;-77
2023/07/10 03:45:44;;;;;;;8.75;5.10;;;27.60;52.20;;;;;;5111018;28;20046;-76
2023/07/10 03:48:10;;;;;;;6.95;4.53;;;27.70;52.20;;;;;;5111747;28;20411;-77
2023/07/10 03:50:36;;;;;;;7.93;4.65;;;27.60;52.20;;;;;;5110726;28;20055;-77
2023/07/10 03:53:02;;;;;;;5.93;4.72;;;27.70;52.30;;;;;;5112830;28;20030;-77
2023/07/10 03:55:28;;;;;;;8.75;5.28;;;27.70;52.30;;;;;;5112450;28;20107;-77
2023/07/10 03:57:54;;;;;;;6.28;4.80;;;27.80;52.40;;;;;;5109859;28;20480;-76
2023/07/10 04:00:20;;;;;;;7.78;5.20;;;27.60;52.40;;;;;;5108736;28;20028;-77
2023/07/10 04:02:46;;;;;;;7.18;5.53;;;27.80;52.40;;;;;;5112229;28;20043;-77
2023/07/10 04:05:12;;;;;;;5.15;3.72;;;27.60;52.50;;;;;;5111501;28;20028;-77
2023/07/10 04:07:38;;;;;;;7.15;5.28;;;27.70;52.50;;;;;;5110724;28;20165;-77
2023/07/10 04:10:05;;;;;;;6.90;4.50;;;27.70;52.50;;;;;;5110283;28;20114;-76
2023/07/10 04:12:31;;;;;;;5.05;4.60;;;27.70;52.50;;;;;;5111340;28;20530;-77
2023/07/10 04:14:57;;;;;;;4.85;4.00;;;27.80;52.50;;;;;;5111591;28;20028;-76
2023/07/10 04:17:23;;;;;;;7.40;5.50;;;27.70;52.50;;;;;;5109281;28;20055;-77
2023/07/10 04:19:49;;;;;;;8.02;4.93;;;27.80;52.50;;;;;;5110325;28;20438;-76
2023/07/10 04:22:15;;;;;;;6.20;4.90;;;27.70;52.50;;;;;;5109697;28;20032;-76
2023/07/10 04:24:41;;;;;;;6.97;5.22;;;27.80;52.40;;;;;;5112576;28;20051;-77
2023/07/10 04:27:08;;;;;;;9.15;4.57;;;27.80;52.40;;;;;;5105196;28;20374;-76
2023/07/10 04:29:35;;;;;;;4.25;3.80;;;27.80;52.40;;;;;;5108494;28;20031;-77
2023/07/10 04:32:01;;;;;;;8.40;4.80;;;27.70;52.40;;;;;;5110372;28;20066;-77
2023/07/10 04:34:27;;;;;;;4.13;3.72;;;27.70;52.40;;;;;;5112336;28;20059;-77
2023/07/10 04:36:53;;;;;;;4.65;3.90;;;27.60;52.40;;;;;;5109707;28;20061;-77
2023/07/10 04:39:19;;;;;;;4.60;3.85;;;27.70;52.30;;;;;;5110206;28;20019;-77
2023/07/10 04:41:45;;;;;;;8.38;4.03;;;27.70;52.30;;;;;;5110895;28;20044;-76
2023/07/10 04:44:11;;;;;;;4.43;3.95;;;27.70;52.30;;;;;;5109995;28;20047;-77
2023/07/10 04:46:37;;;;;;;5.30;4.05;;;27.70;52.40;;;;;;5108869;28;20027;-77
2023/07/10 04:49:03;;;;;;;5.50;4.13;;;27.60;52.40;;;;;;5109008;28;20114;-77
2023/07/10 04:51:29;;;;;;;5.03;3.90;;;27.60;52.50;;;;;;5109248;28;20028;-76
2023/07/10 04:53:55;;;;;;;4.45;3.97;;;27.80;52.50;;;;;;5091401;28;20123;-77
2023/07/10 04:56:21;;;;;;;6.82;4.00;;;27.70;52.50;;;;;;5109099;28;20065;-77
2023/07/10 04:58:53;;;;;;;5.88;4.07;;;27.70;52.60;;;;;;5108073;28;21820;-75
2023/07/10 05:01:22;;;;;;;6.07;3.95;;;27.60;52.60;;;;;;5108082;28;20489;-77
2023/07/10 05:03:49;;;;;;;5.18;3.90;;;27.60;52.50;;;;;;5110570;28;20028;-76
2023/07/10 05:06:15;;;;;;;4.50;4.05;;;27.80;52.60;;;;;;5111669;28;20501;-77
2023/07/10 05:08:41;;;;;;;4.43;3.95;;;27.80;52.60;;;;;;5109501;28;20119;-77
2023/07/10 05:11:07;;;;;;;7.68;4.40;;;27.70;52.60;;;;;;5108683;28;20053;-77
2023/07/10 05:13:33;;;;;;;4.53;3.45;;;27.70;52.60;;;;;;5108566;28;20031;-77
2023/07/10 05:16:00;;;;;;;4.53;3.53;;;27.80;52.60;;;;;;5109372;28;20072;-77
2023/07/10 05:18:26;;;;;;;4.55;3.92;;;27.80;52.60;;;;;;5102886;28;20031;-77
2023/07/10 05:20:53;;;;;;;3.88;3.58;;;27.70;52.60;;;;;;5109543;28;20028;-77
2023/07/10 05:23:19;;;;;;;5.20;4.25;;;27.80;52.60;;;;;;5093426;28;20040;-77
2023/07/10 05:26:10;;;;;;;5.05;4.07;;;27.80;52.60;;;;;;5110611;28;20448;-77
2023/07/10 05:28:37;;;;;;;3.78;2.80;;;27.80;52.50;;;;;;5108710;28;20058;-77
2023/07/10 05:31:06;;;;;;;3.42;2.92;;;27.70;52.60;;;;;;5106465;28;20440;-77
2023/07/10 05:33:32;;;;;;;4.65;3.75;;;27.70;52.60;;;;;;5108790;28;20737;-77
2023/07/10 05:36:00;;;;;;;2.90;2.60;;;27.70;52.60;;;;;;5109136;28;20219;-77
2023/07/10 05:38:29;;;;;;;5.35;3.92;;;27.80;52.60;;;;;;5090797;28;20036;-77
2023/07/10 05:40:55;;;;;;;3.85;3.35;;;27.80;52.60;;;;;;5107761;28;20545;-77
2023/07/10 05:43:21;;;;;;;2.33;1.80;;;27.70;52.60;;;;;;5112089;28;20538;-78
2023/07/10 05:45:49;;;;;;;2.97;1.98;;;27.60;52.50;;;;;;5112093;28;20494;-77
2023/07/10 05:48:16;;;;;;;1.45;1.35;;;27.70;52.60;;;;;;5111656;28;20032;-75
2023/07/10 05:50:47;;;;;;;2.55;1.85;;;27.70;52.60;;;;;;5059862;28;20039;-75
2023/07/10 05:53:14;;;;;;;2.75;1.88;;;27.60;52.80;;;;;;5110767;27;20043;-75
2023/07/10 05:55:51;;;;;;;4.25;2.35;;;27.70;52.80;;;;;;5111493;27;20040;-76
2023/07/10 05:58:19;;;;;;;2.70;2.50;;;27.70;53.70;;;;;;5111884;28;20036;-76
2023/07/10 06:00:47;;;;;;;4.45;2.33;;;27.70;53.30;;;;;;5112179;28;20036;-75
2023/07/10 06:03:13;;;;;;;3.83;2.58;;;27.90;53.80;;;;;;5108148;28;20056;-71
2023/07/10 06:05:39;;;;;;;3.58;2.70;;;28.00;54.20;;;;;;5110572;28;20031;-71
2023/07/10 06:08:08;;;;;;;4.85;3.78;;;27.90;53.00;;;;;;5113764;28;20061;-76
2023/07/10 06:10:34;;;;;;;4.20;3.78;;;27.90;52.50;;;;;;5111656;28;20392;-77
2023/07/10 06:13:00;;;;;;;5.80;4.07;;;28.00;54.50;;;;;;5109542;28;20036;-75
2023/07/10 06:15:27;;;;;;;8.05;6.65;;;28.00;55.40;;;;;;5108373;28;20060;-76
2023/07/10 06:17:56;;;;;;;7.20;5.82;;;28.00;54.60;;;;;;5114530;28;20034;-75
2023/07/10 06:20:22;;;;;;;6.13;4.68;;;28.00;53.10;;;;;;5113556;28;20048;-76
2023/07/10 06:22:48;;;;;;;9.98;4.50;;;28.30;53.10;;;;;;5114550;27;20158;-76
2023/07/10 06:25:14;;;;;;;6.65;4.60;;;28.20;53.90;;;;;;5113197;28;20031;-74
2023/07/10 06:27:40;;;;;;;4.05;3.65;;;28.30;54.10;;;;;;5109502;27;20016;-72
2023/07/10 06:30:07;;;;;;;7.00;4.70;;;28.40;53.50;;;;;;5102398;28;20050;-73
2023/07/10 06:32:34;;;;;;;6.50;3.75;;;28.30;52.50;;;;;;5113895;28;20024;-74
2023/07/10 06:35:00;;;;;;;4.07;3.60;;;28.20;51.60;;;;;;5113904;28;20032;-75
2023/07/10 06:37:26;;;;;;;7.18;3.60;;;28.20;51.30;;;;;;5109870;28;20043;-76
2023/07/10 06:40:12;;;;;;;3.72;3.42;;;28.30;50.50;;;;;;5057423;28;20036;-76
2023/07/10 06:42:40;;;;;;;5.57;3.75;;;28.20;49.80;;;;;;5088884;28;20044;-76
2023/07/10 06:45:09;;;;;;;3.85;3.08;;;28.20;50.10;;;;;;5073526;28;20127;-76
2023/07/10 06:47:40;;;;;;;4.18;3.60;;;28.30;49.80;;;;;;5089346;28;20430;-77
2023/07/10 06:50:07;;;;;;;5.35;3.60;;;28.30;49.50;;;;;;5074055;28;20544;-77
2023/07/10 06:52:33;;;;;;;4.20;3.58;;;28.40;49.30;;;;;;5090868;28;20087;-84
2023/07/10 06:54:59;;;;;;;4.35;2.85;;;28.30;49.30;;;;;;5089758;28;20032;-82
2023/07/10 06:57:25;;;;;;;3.33;2.70;;;28.30;49.10;;;;;;5087805;28;20070;-79
2023/07/10 06:59:51;;;;;;;3.17;2.78;;;28.20;49.00;;;;;;5089717;28;20155;-84
2023/07/10 07:02:17;;;;;;;5.28;3.38;;;28.30;48.90;;;;;;5082789;28;20506;-81
2023/07/10 07:04:43;;;;;;;8.00;3.40;;;28.30;49.20;;;;;;5089472;28;20040;-77
2023/07/10 07:07:09;;;;;;;4.03;3.20;;;28.40;49.50;;;;;;5087867;28;20058;-76
2023/07/10 07:09:35;;;;;;;4.05;3.20;;;28.40;49.70;;;;;;5080852;28;20048;-76
2023/07/10 07:12:01;;;;;;;4.30;3.08;;;28.40;49.90;;;;;;5110467;28;20048;-75
2023/07/10 07:14:27;;;;;;;3.53;3.15;;;28.50;49.70;;;;;;5110215;28;20039;-75
2023/07/10 07:16:54;;;;;;;3.97;3.35;;;28.50;49.50;;;;;;5110438;28;20495;-77
2023/07/10 07:19:20;;;;;;;3.70;3.20;;;28.30;49.40;;;;;;5112225;28;20080;-76
2023/07/10 07:21:46;;;;;;;4.05;3.28;;;28.40;49.30;;;;;;5111311;28;20046;-76
2023/07/10 07:24:12;;;;;;;3.92;2.42;;;28.40;49.30;;;;;;5112993;28;20447;-76
2023/07/10 07:26:38;;;;;;;7.38;3.47;;;28.40;49.40;;;;;;5113169;28;20467;-76
2023/07/10 07:29:04;;;;;;;4.88;2.92;;;28.30;49.40;;;;;;5110878;28;20031;-74
2023/07/10 07:31:30;;;;;;;3.60;3.15;;;28.50;49.30;;;;;;5113412;28;20027;-75
2023/07/10 07:33:56;;;;;;;6.50;3.38;;;28.40;49.10;;;;;;5112785;27;20031;-77
2023/07/10 07:36:22;;;;;;;4.28;2.72;;;28.30;49.00;;;;;;5095522;28;20432;-78
2023/07/10 07:38:48;;;;;;;3.88;3.25;;;28.40;49.00;;;;;;5097447;28;20051;-78
2023/07/10 07:41:14;;;;;;;5.03;3.88;;;28.40;48.80;;;;;;5090569;27;20143;-79
2023/07/10 07:43:40;;;;;;;7.97;3.20;;;28.40;48.90;;;;;;5099620;27;20122;-79
2023/07/10 07:46:06;;;;;;;3.60;3.05;;;28.30;49.20;;;;;;5094459;28;20158;-83
2023/07/10 07:48:32;;;;;;;5.18;3.00;;;28.20;49.30;;;;;;5077956;28;20047;-83
2023/07/10 07:51:03;;;;;;;3.08;2.65;;;28.20;49.40;;;;;;5095135;28;20437;-79
2023/07/10 07:53:33;;;;;;;4.35;3.40;;;28.20;49.40;;;;;;5096932;28;20047;-76
2023/07/10 07:56:00;;;;;;;4.05;3.30;;;28.20;49.30;;;;;;5099890;28;20392;-77
2023/07/10 07:58:27;;;;;;;3.08;2.78;;;28.10;49.40;;;;;;5080732;28;20430;-78
2023/07/10 08:00:53;;;;;;;2.88;2.53;;;28.10;49.40;;;;;;5079101;28;20144;-79
2023/07/10 08:03:20;;;;;;;3.17;2.88;;;28.20;49.40;;;;;;5081614;27;20032;-78
2023/07/10 08:05:46;;;;;;;4.25;2.80;;;28.10;50.00;;;;;;5103748;27;20273;-78
2023/07/10 08:08:12;;;;;;;2.88;2.55;;;28.10;50.00;;;;;;5088657;28;20111;-80
2023/07/10 08:10:42;;;;;;;4.40;2.78;;;28.20;50.20;;;;;;5127396;27;20110;-80
2023/07/10 08:13:10;;;;;;;3.50;2.75;;;28.30;50.40;;;;;;5109653;28;20104;-80
2023/07/10 08:15:36;;;;;;;2.17;1.98;;;28.10;50.10;;;;;;5113780;27;20156;-80
2023/07/10 08:18:03;;;;;;;2.45;2.25;;;28.10;50.10;;;;;;5121758;27;20149;-80
2023/07/10 08:20:29;;;;;;;2.78;2.53;;;28.10;50.10;;;;;;5113991;27;20132;-80
2023/07/10 08:22:55;;;;;;;2.95;2.00;;;28.10;50.20;;;;;;5109042;28;20227;-80
2023/07/10 08:25:21;;;;;;;4.68;2.75;;;28.00;50.20;;;;;;5129930;27;20182;-79
2023/07/10 08:27:47;;;;;;;4.25;3.28;;;28.00;50.40;;;;;;5125713;27;20051;-80
2023/07/10 08:30:15;;;;;;;3.03;2.40;;;28.00;50.30;;;;;;5112997;27;20408;-81
2023/07/10 08:32:41;;;;;;;3.30;3.00;;;28.00;50.30;;;;;;5128668;27;20073;-81
2023/07/10 08:35:08;;;;;;;3.35;2.90;;;28.20;50.40;;;;;;5129184;27;20039;-80
2023/07/10 08:37:36;;;;;;;3.75;2.00;;;28.00;50.40;;;;;;5112827;27;20027;-81
2023/07/10 08:40:10;;;;;;;2.45;2.20;;;28.10;50.50;;;;;;5126740;27;20080;-80
2023/07/10 08:42:36;;;;;;;3.28;2.80;;;28.00;50.10;;;;;;5127096;27;20046;-81
2023/07/10 08:45:03;;;;;;;3.15;2.70;;;28.10;50.50;;;;;;5129485;27;20035;-81
2023/07/10 08:47:48;;;;;;;2.80;2.60;;;28.10;50.60;;;;;;5111807;28;20035;-81
2023/07/10 08:50:25;;;;;;;3.08;2.72;;;28.10;50.70;;;;;;5129498;27;20126;-79
2023/07/10 08:53:03;;;;;;;3.28;2.97;;;28.10;50.70;;;;;;5117436;27;20042;-80
2023/07/10 08:56:04;;;;;;;3.15;2.78;;;28.00;50.80;;;;;;5124073;27;20067;-80
2023/07/10 08:58:34;;;;;;;4.00;2.58;;;28.20;50.80;;;;;;5065561;28;20052;-79
2023/07/10 09:01:03;;;;;;;2.28;2.08;;;28.10;50.90;;;;;;5068283;28;20048;-80
2023/07/10 09:03:43;;;;;;;3.05;2.03;;;28.10;50.90;;;;;;5066449;28;20139;-79
2023/07/10 09:06:21;;;;;;;1.95;1.85;;;28.10;50.90;;;;;;5067855;28;20595;-79
2023/07/10 09:08:53;;;;;;;3.40;2.55;;;28.10;50.90;;;;;;5066914;28;20049;-80
2023/07/10 09:11:20;;;;;;;4.50;2.67;;;28.20;51.00;;;;;;5064609;28;20658;-79
2023/07/10 09:14:30;;;;;;;5.07;2.70;;;28.20;51.00;;;;;;5028469;28;20060;-80
2023/07/10 09:16:58;;;;;;;3.35;3.05;;;28.20;51.10;;;;;;5023267;28;20041;-80
2023/07/10 09:19:24;;;;;;;4.28;2.72;;;28.30;51.10;;;;;;5026504;28;20049;-80
2023/07/10 09:21:50;;;;;;;2.92;2.13;;;28.30;51.10;;;;;;5006856;28;20153;-80
2023/07/10 09:24:22;;;;;;;3.83;2.72;;;28.20;51.10;;;;;;5024808;28;20150;-80
2023/07/10 09:26:49;;;;;;;2.65;2.45;;;28.30;51.10;;;;;;5026280;28;20502;-80
2023/07/10 09:29:24;;;;;;;3.25;2.88;;;28.30;51.10;;;;;;5026793;28;20055;-79
2023/07/10 09:32:00;;;;;;;2.85;2.33;;;28.20;51.10;;;;;;5028042;28;20379;-80
2023/07/10 09:34:32;;;;;;;3.55;2.97;;;28.40;51.10;;;;;;5039960;28;20733;-79
2023/07/10 09:37:00;;;;;;;3.13;2.70;;;28.20;51.10;;;;;;5068173;28;20048;-78
2023/07/10 09:39:31;;;;;;;3.33;2.47;;;28.20;51.10;;;;;;5067641;28;20033;-80
2023/07/10 09:41:59;;;;;;;2.50;2.30;;;28.20;51.10;;;;;;5066306;28;20059;-79
2023/07/10 09:44:37;;;;;;;3.35;3.05;;;28.20;51.10;;;;;;5066357;28;20048;-79
2023/07/10 09:47:10;;;;;;;3.03;2.70;;;28.20;51.10;;;;;;5071498;28;20484;-80
2023/07/10 09:49:46;;;;;;;4.93;2.90;;;28.20;51.10;;;;;;5071561;28;20133;-80
2023/07/10 09:52:25;;;;;;;2.83;2.55;;;28.20;51.10;;;;;;5088098;28;20040;-79
2023/07/10 09:55:11;;;;;;;5.03;3.00;;;28.30;51.10;;;;;;5118660;28;20506;-76
2023/07/10 09:57:56;;;;;;;3.25;2.47;;;28.20;51.10;;;;;;5097349;28;20077;-80
2023/07/10 10:00:22;;;;;;;3.70;1.90;;;28.30;51.00;;;;;;5120716;27;20118;-77
2023/07/10 10:02:56;;;;;;;3.78;2.83;;;28.30;51.00;;;;;;5127889;28;20047;-79
2023/07/10 10:05:22;;;;;;;8.45;3.63;;;28.40;52.30;;;;;;5127463;28;20055;-77
2023/07/10 10:07:51;;;;;;;2.80;2.33;;;28.40;52.90;;;;;;5128128;28;20557;-80
2023/07/10 10:10:24;;;;;;;3.28;2.63;;;28.40;53.10;;;;;;5126474;27;20120;-75
2023/07/10 10:13:04;;;;;;;6.03;3.70;;;28.60;51.90;;;;;;5123800;28;20031;-77
2023/07/10 10:15:51;;;;;;;4.85;3.58;;;28.90;51.70;;;;;;5108083;28;20120;-77
2023/07/10 10:18:43;;;;;;;7.00;2.95;;;28.60;51.10;;;;;;5104951;28;20471;-81
2023/07/10 10:21:12;;;;;;;3.47;2.38;;;28.70;51.30;;;;;;5088624;28;20142;-76
2023/07/10 10:23:41;;;;;;;5.13;3.15;;;28.70;50.40;;;;;;5071462;28;20040;-77
2023/07/10 10:26:25;;;;;;;7.03;2.33;;;28.80;49.00;;;;;;5089053;28;20047;-76
2023/07/10 10:29:19;;;;;;;3.40;2.13;;;28.70;49.40;;;;;;5065252;28;20544;-76
2023/07/10 10:32:27;;;;;;;5.70;3.03;;;28.80;48.90;;;;;;5088361;28;20399;-77
2023/07/10 10:35:29;;;;;;;5.35;2.50;;;28.80;50.50;;;;;;5027544;28;20127;-75
2023/07/10 10:38:16;;;;;;;2.90;2.63;;;28.90;49.10;;;;;;5030423;28;20040;-76
2023/07/10 10:40:54;;;;;;;4.35;2.15;;;28.80;48.00;;;;;;5029462;28;20508;-75
2023/07/10 10:43:33;;;;;;;5.53;2.28;;;28.80;48.30;;;;;;5026577;28;20045;-75
2023/07/10 10:46:10;;;;;;;2.20;1.50;;;28.90;47.70;;;;;;5029575;28;20917;-76
2023/07/10 10:49:01;;;;;;;3.78;1.80;;;28.90;48.30;;;;;;5027734;28;21793;-76
2023/07/10 10:52:03;;;;;;;2.47;2.13;;;28.80;47.90;;;;;;5026949;28;20041;-77
2023/07/10 10:54:51;;;;;;;2.43;1.40;;;28.80;47.70;;;;;;5036769;28;20044;-72
2023/07/10 10:57:49;;;;;;;6.20;2.05;;;28.80;47.60;;;;;;5035073;28;20353;-75
2023/07/10 11:00:41;;;;;;;3.05;2.25;;;28.90;48.90;;;;;;5013028;28;20249;-74
2023/07/10 11:03:12;;;;;;;3.22;2.20;;;28.90;49.00;;;;;;5022361;28;20041;-74
2023/07/10 11:05:52;;;;;;;3.17;2.13;;;29.00;49.60;;;;;;5017939;28;20178;-76
2023/07/10 11:08:22;;;;;;;5.32;2.35;;;29.00;48.30;;;;;;5047527;28;20073;-77
2023/07/10 11:10:51;;;;;;;4.60;1.70;;;28.80;47.20;;;;;;5089936;28;20055;-77
2023/07/10 11:13:33;;;;;;;3.20;1.92;;;28.90;46.60;;;;;;5049885;28;20071;-75
2023/07/10 11:16:05;;;;;;;2.72;1.50;;;29.00;46.60;;;;;;5038250;28;20040;-76
2023/07/10 11:18:31;;;;;;;2.90;1.80;;;28.80;45.80;;;;;;5047570;28;20064;-75
2023/07/10 11:21:01;;;;;;;3.25;1.77;;;29.00;45.80;;;;;;5049724;28;20029;-73
2023/07/10 11:23:42;;;;;;;1.63;1.45;;;29.00;45.20;;;;;;5050401;28;20143;-74
2023/07/10 11:26:14;;;;;;;2.00;1.40;;;29.00;44.80;;;;;;5032860;28;20075;-74
2023/07/10 11:28:52;;;;;;;1.93;1.40;;;29.00;44.40;;;;;;5049412;28;20110;-74
2023/07/10 11:31:29;;;;;;;2.65;1.90;;;28.90;43.50;;;;;;5030038;28;20041;-75
2023/07/10 11:34:06;;;;;;;2.25;1.50;;;28.80;43.20;;;;;;5012698;28;20042;-75
2023/07/10 11:36:38;;;;;;;2.22;1.42;;;28.90;43.00;;;;;;5056056;28;20393;-75
2023/07/10 11:39:11;;;;;;;1.58;1.48;;;28.90;43.10;;;;;;5090046;28;20052;-75
2023/07/10 11:41:42;;;;;;;2.35;1.42;;;28.90;42.90;;;;;;5075097;28;20040;-74
2023/07/10 11:44:14;;;;;;;1.50;1.40;;;28.90;42.90;;;;;;5081515;28;20044;-74
2023/07/10 11:47:26;;;;;;;2.38;1.73;;;28.70;43.00;;;;;;5104238;28;20467;-74
2023/07/10 11:49:54;;;;;;;1.52;1.42;;;28.80;42.90;;;;;;5046055;28;20048;-74
2023/07/10 11:52:27;;;;;;;1.52;1.42;;;28.70;42.70;;;;;;5050797;28;20044;-76
2023/07/10 11:54:56;;;;;;;2.05;1.80;;;28.70;42.60;;;;;;5063869;28;20036;-74
2023/07/10 11:57:24;;;;;;;1.45;1.35;;;28.80;42.00;;;;;;5065018;28;20155;-74
2023/07/10 12:00:03;;;;;;;1.83;1.70;;;28.60;42.80;;;;;;5056928;28;20704;-75
2023/07/10 12:02:44;;;;;;;1.50;1.40;;;28.80;43.50;;;;;;5081208;28;20052;-74
2023/07/10 12:05:34;;;;;;;4.72;1.40;;;28.60;44.20;;;;;;5089462;28;20044;-74
2023/07/10 12:08:16;;;;;;;1.88;1.70;;;28.60;44.70;;;;;;5031091;28;20668;-76
2023/07/10 12:10:46;;;;;;;4.03;1.50;;;28.60;45.40;;;;;;5069488;28;20044;-75
2023/07/10 12:13:32;;;;;;;5.72;1.65;;;28.60;45.80;;;;;;5050137;28;20049;-75
2023/07/10 12:16:11;;;;;;;1.67;1.50;;;28.70;46.00;;;;;;5062382;28;20075;-76
2023/07/10 12:18:39;;;;;;;1.52;1.42;;;28.60;46.20;;;;;;5063460;28;20045;-74
2023/07/10 12:21:20;;;;;;;1.70;1.60;;;28.70;46.10;;;;;;5058477;28;20021;-72
2023/07/10 12:23:59;;;;;;;1.83;1.40;;;28.60;46.40;;;;;;5051820;28;20064;-73
2023/07/10 12:26:26;;;;;;;2.05;1.65;;;28.60;46.30;;;;;;5108710;28;20036;-74
2023/07/10 12:28:57;;;;;;;1.38;1.27;;;28.60;46.40;;;;;;5109313;28;20034;-75
2023/07/10 12:31:24;;;;;;;1.60;1.50;;;28.70;46.40;;;;;;5108198;28;20130;-75
2023/07/10 12:33:52;;;;;;;3.50;1.42;;;28.50;46.50;;;;;;5112321;28;20070;-75
2023/07/10 12:36:32;;;;;;;1.25;1.17;;;28.60;46.50;;;;;;5110363;28;20028;-76
2023/07/10 12:39:06;;;;;;;2.83;1.45;;;28.50;46.50;;;;;;5108835;28;20464;-76
2023/07/10 12:41:33;;;;;;;1.80;1.52;;;28.70;46.60;;;;;;5107796;28;20044;-74
2023/07/10 12:44:02;;;;;;;2.63;1.65;;;28.60;46.70;;;;;;5107723;28;20039;-76
2023/07/10 12:46:33;;;;;;;1.60;1.50;;;28.60;46.80;;;;;;5110592;28;20035;-75
2023/07/10 12:49:12;;;;;;;1.85;1.25;;;28.50;46.90;;;;;;5109117;28;20107;-74
2023/07/10 12:51:41;;;;;;;2.22;1.30;;;28.60;47.00;;;;;;5107928;28;20052;-76
2023/07/10 12:54:22;;;;;;;1.33;1.25;;;28.60;47.00;;;;;;5090679;28;20031;-75
2023/07/10 12:56:52;;;;;;;1.50;1.40;;;28.50;47.20;;;;;;5109960;28;20035;-75
2023/07/10 12:59:31;;;;;;;1.38;1.27;;;28.60;47.20;;;;;;5109681;28;20016;-76
2023/07/10 13:02:24;;;;;;;1.05;0.90;;;28.40;46.40;;;;;;5110522;28;20038;-74
2023/07/10 13:04:54;;;;;;;;;;;28.40;47.30;;;;;;5109176;28;20596;-74
2023/07/10 13:07:22;;;;;;;2.35;1.30;;;28.50;47.40;;;;;;5112158;28;19975;-75